createdAt,value
2019-05-10T00:00:23.530Z,39.28
2019-05-10T00:05:45.319Z,39.86
2019-05-10T00:10:50.447Z,40.47
2019-05-10T00:15:54.040Z,41.04
2019-05-10T00:20:57.652Z,40.85
2019-05-10T00:26:01.206Z,40.62
2019-05-10T00:31:04.902Z,40.34
2019-05-10T00:36:08.454Z,40.93
2019-05-10T00:41:12.055Z,40.29
2019-05-10T00:46:15.614Z,40.26
2019-05-10T00:51:19.227Z,40.97
2019-05-10T00:56:22.764Z,41.16
2019-05-10T01:01:26.358Z,40.61
2019-05-10T01:06:29.914Z,40.12
2019-05-10T01:11:33.511Z,40.47
2019-05-10T01:16:37.061Z,40.68
2019-05-10T01:21:40.658Z,40.80
2019-05-10T01:26:44.754Z,40.20
2019-05-10T01:31:48.318Z,39.59
2019-05-10T01:36:51.902Z,37.57
2019-05-10T01:41:55.488Z,34.48
2019-05-10T01:46:59.045Z,34.83
2019-05-10T01:52:02.624Z,35.10
2019-05-10T01:57:06.219Z,35.18
2019-05-10T02:02:09.847Z,36.33
2019-05-10T02:07:13.415Z,36.33
2019-05-10T02:12:16.983Z,36.89
2019-05-10T02:17:20.552Z,37.61
2019-05-10T02:22:24.224Z,37.78
2019-05-10T02:27:27.809Z,38.71
2019-05-10T02:32:31.395Z,39.47
2019-05-10T02:37:35.142Z,38.88
2019-05-10T02:42:38.728Z,39.23
2019-05-10T02:47:42.301Z,39.62
2019-05-10T02:52:45.876Z,39.99
2019-05-10T02:57:49.475Z,40.19
2019-05-10T03:02:53.077Z,40.23
2019-05-10T03:07:57.037Z,40.35
2019-05-10T03:13:01.799Z,40.00
2019-05-10T03:18:06.039Z,40.41
2019-05-10T03:23:10.578Z,40.96
2019-05-10T03:28:14.146Z,40.32
2019-05-10T03:33:17.726Z,40.62
2019-05-10T03:38:21.344Z,41.16
2019-05-10T03:43:24.911Z,41.51
2019-05-10T03:48:28.487Z,42.05
2019-05-10T03:53:32.038Z,43.09
2019-05-10T03:58:35.615Z,42.33
2019-05-10T04:03:39.665Z,43.58
2019-05-10T04:08:43.227Z,42.40
2019-05-10T04:13:46.824Z,41.24
2019-05-10T04:18:50.379Z,40.25
2019-05-10T04:23:53.996Z,37.99
2019-05-10T04:28:57.530Z,36.12
2019-05-10T04:34:01.118Z,34.61
2019-05-10T04:39:06.556Z,34.54
2019-05-10T04:44:10.125Z,34.98
2019-05-10T04:49:13.734Z,35.00
2019-05-10T04:54:17.274Z,35.20
2019-05-10T04:59:20.835Z,35.37
2019-05-10T05:04:24.429Z,35.44
2019-05-10T05:09:27.983Z,35.42
2019-05-10T05:14:31.544Z,35.57
2019-05-10T05:19:35.154Z,36.15
2019-05-10T05:24:38.701Z,35.79
2019-05-10T05:29:42.310Z,35.84
2019-05-10T05:34:45.871Z,36.00
2019-05-10T05:39:49.452Z,35.98
2019-05-10T05:44:53.003Z,35.40
2019-05-10T05:49:56.603Z,35.11
2019-05-10T05:55:00.146Z,35.21
2019-05-10T06:00:06.668Z,35.20
2019-05-10T06:05:10.209Z,35.60
2019-05-10T06:10:16.921Z,35.10
2019-05-10T06:15:23.123Z,34.58
2019-05-10T06:20:24.378Z,34.09
2019-05-10T06:25:39.567Z,34.49
2019-05-10T06:30:33.246Z,34.14
2019-05-10T06:35:36.818Z,34.09
2019-05-10T06:40:46.890Z,34.48
2019-05-10T06:45:46.701Z,34.71
2019-05-10T06:50:51.001Z,34.84
2019-05-10T06:55:54.563Z,34.93
2019-05-10T07:00:58.151Z,34.87
2019-05-10T07:06:01.703Z,34.61
2019-05-10T07:11:05.669Z,34.23
2019-05-10T07:16:09.220Z,33.29
2019-05-10T07:21:12.786Z,31.56
2019-05-10T07:26:22.902Z,29.36
2019-05-10T07:31:23.604Z,27.11
2019-05-10T07:36:30.539Z,27.01
2019-05-10T07:41:32.278Z,27.92
2019-05-10T07:46:40.237Z,28.97
2019-05-10T07:51:41.650Z,29.92
2019-05-10T07:56:47.803Z,30.91
2019-05-10T08:01:51.441Z,31.72
2019-05-10T08:06:54.982Z,32.11
2019-05-10T08:12:03.235Z,32.64
2019-05-10T08:17:06.266Z,33.03
2019-05-10T08:22:10.285Z,33.12
2019-05-10T08:27:14.757Z,33.41
2019-05-10T08:32:19.333Z,33.79
2019-05-10T08:37:33.094Z,34.04
2019-05-10T08:42:43.840Z,34.11
2019-05-10T08:47:34.764Z,34.14
2019-05-10T08:52:38.320Z,34.68
2019-05-10T08:57:44.351Z,34.49
2019-05-10T09:02:47.282Z,34.63
2019-05-10T09:07:52.067Z,34.53
2019-05-10T09:12:58.067Z,34.49
2019-05-10T09:18:04.310Z,34.84
2019-05-10T09:23:08.554Z,34.67
2019-05-10T09:28:16.808Z,34.98
2019-05-10T09:33:17.002Z,35.04
2019-05-10T09:38:22.134Z,35.29
2019-05-10T09:43:25.830Z,35.29
2019-05-10T09:53:32.068Z,35.63
2019-05-10T09:58:38.501Z,35.54
2019-05-10T10:03:43.638Z,35.95
2019-05-10T10:08:49.291Z,36.13
2019-05-10T10:13:59.296Z,36.13
2019-05-10T10:18:57.401Z,36.22
2019-05-10T10:24:12.558Z,36.39
2019-05-10T10:29:07.377Z,36.37
2019-05-10T10:34:11.262Z,36.50
2019-05-10T10:39:16.911Z,36.53
2019-05-10T10:44:20.159Z,35.98
2019-05-10T10:49:28.063Z,35.09
2019-05-10T10:54:36.238Z,33.69
2019-05-10T10:59:34.329Z,30.44
2019-05-10T11:04:40.389Z,27.65
2019-05-10T11:09:43.201Z,27.55
2019-05-10T11:14:46.794Z,28.33
2019-05-10T11:19:50.342Z,29.23
2019-05-10T11:25:00.710Z,30.30
2019-05-10T11:30:00.878Z,31.03
2019-05-10T11:35:05.972Z,31.61
2019-05-10T11:40:11.329Z,31.97
2019-05-10T11:45:14.995Z,32.17
2019-05-10T11:55:23.904Z,32.78
2019-05-10T11:59:05.164Z,32.42
2019-05-10T12:05:32.855Z,33.46
2019-05-10T12:10:43.068Z,33.62
2019-05-10T12:15:43.175Z,34.00
2019-05-10T12:21:00.374Z,34.08
2019-05-10T12:26:03.776Z,33.16
2019-05-10T12:26:49.190Z,34.39
2019-05-10T12:30:57.968Z,34.49
2019-05-10T12:36:02.415Z,34.40
2019-05-10T12:41:06.299Z,34.53
2019-05-10T12:46:10.552Z,34.75
2019-05-10T12:51:16.220Z,34.83
2019-05-10T12:56:19.698Z,34.94
2019-05-10T13:01:25.785Z,35.05
2019-05-10T13:06:28.709Z,35.38
2019-05-10T13:11:32.617Z,35.62
2019-05-10T13:16:36.282Z,35.80
2019-05-10T13:21:39.855Z,35.14
2019-05-10T13:26:43.414Z,37.05
2019-05-10T13:31:47.037Z,37.13
2019-05-10T13:36:50.683Z,37.52
2019-05-10T13:41:57.303Z,37.35
2019-05-10T13:46:59.623Z,37.72
2019-05-10T13:52:03.172Z,37.52
2019-05-10T13:57:06.821Z,37.28
2019-05-10T14:02:10.352Z,37.04
2019-05-10T14:07:13.924Z,37.20
2019-05-10T14:12:23.244Z,37.04
2019-05-10T14:22:25.420Z,36.96
2019-05-10T14:27:29.955Z,37.26
2019-05-10T14:32:34.298Z,37.16
2019-05-10T14:37:37.913Z,35.89
2019-05-10T14:42:41.520Z,36.99
2019-05-10T14:47:47.784Z,37.12
2019-05-10T14:52:50.505Z,37.02
2019-05-10T14:57:54.058Z,37.56
2019-05-10T15:03:02.001Z,37.76
2019-05-10T15:08:02.931Z,37.72
2019-05-10T15:13:06.500Z,37.81
2019-05-10T15:18:10.083Z,37.79
2019-05-10T15:23:13.769Z,37.73
2019-05-10T15:28:17.373Z,37.97
2019-05-10T15:33:21.132Z,38.06
2019-05-10T15:38:24.719Z,37.99
2019-05-10T15:43:28.310Z,38.17
2019-05-10T15:48:36.611Z,38.32
2019-05-10T15:53:37.567Z,38.04
2019-05-10T15:58:43.016Z,38.30
2019-05-10T16:03:47.613Z,38.17
2019-05-10T16:08:51.513Z,38.35
2019-05-10T16:13:59.949Z,38.26
2019-05-10T16:19:00.460Z,38.27
2019-05-10T16:24:05.015Z,38.41
2019-05-10T16:29:08.658Z,38.30
2019-05-10T16:34:12.219Z,38.17
2019-05-10T16:39:15.805Z,38.50
2019-05-10T16:44:21.022Z,38.34
2019-05-10T16:49:25.968Z,38.68
2019-05-10T16:54:30.470Z,38.94
2019-05-10T16:59:35.746Z,39.01
2019-05-10T17:04:39.927Z,38.94
2019-05-10T17:09:43.895Z,39.42
2019-05-10T17:14:50.623Z,39.48
2019-05-10T17:19:54.537Z,39.09
2019-05-10T17:25:03.486Z,39.67
2019-05-10T17:30:06.171Z,39.71
2019-05-10T17:35:10.416Z,39.92
2019-05-10T17:40:14.280Z,39.59
2019-05-10T17:45:18.985Z,39.70
2019-05-10T17:50:23.507Z,39.60
2019-05-10T17:55:27.733Z,39.71
2019-05-10T18:00:35.544Z,39.99
2019-05-10T18:05:44.544Z,40.51
2019-05-10T18:10:44.419Z,39.91
2019-05-10T18:15:48.010Z,40.28
2019-05-10T18:20:51.751Z,40.83
2019-05-10T18:25:58.640Z,41.17
2019-05-10T18:31:00.679Z,40.68
2019-05-10T18:36:04.805Z,40.79
2019-05-10T18:41:09.998Z,40.81
2019-05-10T18:46:13.721Z,41.20
2019-05-10T18:51:17.868Z,42.03
2019-05-10T18:56:25.308Z,42.32
2019-05-10T19:01:32.871Z,41.62
2019-05-10T19:06:33.226Z,42.33
2019-05-10T19:11:39.158Z,42.63
2019-05-10T19:16:42.124Z,42.72
2019-05-10T19:21:45.690Z,43.79
2019-05-10T19:26:49.258Z,44.08
2019-05-10T19:31:52.859Z,43.40
2019-05-10T19:36:56.738Z,43.40
2019-05-10T19:42:04.019Z,43.66
2019-05-10T19:47:05.765Z,44.10
2019-05-10T19:52:09.431Z,43.38
2019-05-10T19:57:16.379Z,43.62
2019-05-10T20:02:18.447Z,43.72
2019-05-10T20:07:21.987Z,44.02
2019-05-10T20:12:25.564Z,43.78
2019-05-10T20:17:29.302Z,44.36
2019-05-10T20:22:35.999Z,44.06
2019-05-10T20:27:38.581Z,44.10
2019-05-10T20:32:42.383Z,44.54
2019-05-10T20:38:00.641Z,44.62
2019-05-10T20:42:51.392Z,43.71
2019-05-10T20:47:54.979Z,44.01
2019-05-10T20:52:58.586Z,43.69
2019-05-10T20:58:02.170Z,43.81
2019-05-10T21:03:05.852Z,43.56
2019-05-10T21:08:16.980Z,43.92
2019-05-10T21:13:14.764Z,43.81
2019-05-10T21:18:18.346Z,43.41
2019-05-10T21:23:21.959Z,43.14
2019-05-10T21:28:25.528Z,43.46
2019-05-10T21:33:29.108Z,43.53
2019-05-10T21:38:33.674Z,43.40
2019-05-10T21:43:37.272Z,42.80
2019-05-10T21:48:40.892Z,42.80
2019-05-10T21:53:44.450Z,43.39
2019-05-10T21:58:48.037Z,43.37
2019-05-10T22:03:51.652Z,43.67
2019-05-10T22:08:55.481Z,43.31
2019-05-10T22:13:59.087Z,42.99
2019-05-10T22:19:03.204Z,42.74
2019-05-10T22:24:06.885Z,42.64
2019-05-10T22:29:10.453Z,42.64
2019-05-10T22:34:14.036Z,43.13
2019-05-10T22:39:17.601Z,43.13
2019-05-10T22:44:21.529Z,43.26
2019-05-10T22:49:25.102Z,42.72
2019-05-10T22:54:28.771Z,39.95
2019-05-10T22:59:32.337Z,36.23
2019-05-10T23:04:35.951Z,31.30
2019-05-10T23:09:39.657Z,30.47
2019-05-10T23:14:43.355Z,30.26
2019-05-10T23:19:47.032Z,30.34
2019-05-10T23:24:50.602Z,30.93
2019-05-10T23:29:54.177Z,31.33
2019-05-10T23:34:57.783Z,32.40
2019-05-10T23:40:01.344Z,32.73
2019-05-10T23:45:06.333Z,33.40
2019-05-10T23:50:09.942Z,34.08
2019-05-10T23:55:13.535Z,34.56
